createdAt,value
2019-05-09T00:00:07.208Z,4.50
2019-05-09T00:05:11.008Z,5.57
2019-05-09T00:10:14.808Z,4.63
2019-05-09T00:15:18.783Z,5.93
2019-05-09T00:20:28.009Z,7.47
2019-05-09T00:25:31.461Z,6.87
2019-05-09T00:30:54.116Z,7.13
2019-05-09T00:35:57.580Z,6.87
2019-05-09T00:41:03.707Z,7.43
2019-05-09T00:46:07.908Z,8.77
2019-05-09T00:51:11.395Z,6.87
2019-05-09T00:56:15.670Z,7.87
2019-05-09T01:01:19.471Z,6.50
2019-05-09T01:06:23.969Z,8.20
2019-05-09T01:11:27.669Z,8.07
2019-05-09T01:16:33.301Z,7.87
2019-05-09T01:21:37.136Z,8.07
2019-05-09T01:26:40.591Z,8.87
2019-05-09T01:31:44.024Z,7.53
2019-05-09T01:37:07.123Z,6.57
2019-05-09T01:42:10.867Z,6.00
2019-05-09T01:47:14.335Z,5.77
2019-05-09T01:52:19.322Z,5.00
2019-05-09T01:57:24.414Z,5.13
2019-05-09T02:02:27.898Z,5.03
2019-05-09T02:07:33.225Z,5.20
2019-05-09T02:12:36.737Z,3.87
2019-05-09T02:17:57.792Z,4.60
2019-05-09T02:22:50.297Z,4.40
2019-05-09T02:27:55.259Z,3.57
2019-05-09T02:32:58.832Z,3.87
2019-05-09T02:38:02.292Z,3.50
2019-05-09T02:43:10.227Z,3.40
2019-05-09T02:48:14.784Z,3.00
2019-05-09T02:53:19.042Z,3.40
2019-05-09T02:58:24.175Z,4.10
2019-05-09T03:03:29.402Z,3.67
2019-05-09T03:08:33.018Z,3.77
2019-05-09T03:13:39.424Z,4.03
2019-05-09T03:18:41.872Z,3.27
2019-05-09T03:23:45.387Z,4.07
2019-05-09T03:28:53.008Z,3.37
2019-05-09T03:33:59.476Z,3.57
2019-05-09T03:39:01.726Z,3.43
2019-05-09T03:44:07.306Z,2.70
2019-05-09T03:49:12.186Z,2.97
2019-05-09T03:54:18.145Z,2.53
2019-05-09T03:59:20.827Z,3.93
2019-05-09T04:04:24.287Z,4.20
2019-05-09T04:09:27.723Z,3.00
2019-05-09T04:14:32.969Z,3.10
2019-05-09T04:19:38.064Z,3.13
2019-05-09T04:24:41.603Z,3.00
2019-05-09T04:29:45.252Z,3.17
2019-05-09T04:34:48.712Z,2.27
2019-05-09T04:39:53.971Z,4.03
2019-05-09T04:45:03.572Z,3.30
2019-05-09T04:50:07.684Z,3.13
2019-05-09T04:55:12.051Z,2.83
2019-05-09T05:00:18.539Z,2.90
2019-05-09T05:05:21.995Z,2.83
2019-05-09T05:10:27.353Z,2.70
2019-05-09T05:15:30.636Z,2.83
2019-05-09T05:20:35.034Z,4.07
2019-05-09T05:25:38.430Z,2.70
2019-05-09T05:30:41.890Z,2.67
2019-05-09T05:35:48.021Z,2.50
2019-05-09T05:40:51.497Z,3.33
2019-05-09T05:45:59.144Z,2.10
2019-05-09T05:51:02.603Z,2.93
2019-05-09T05:56:08.389Z,3.40
2019-05-09T06:01:11.213Z,3.33
2019-05-09T06:06:14.674Z,3.43
2019-05-09T06:11:18.117Z,3.53
2019-05-09T06:16:22.364Z,3.47
2019-05-09T06:21:28.097Z,3.90
2019-05-09T06:26:33.446Z,3.13
2019-05-09T06:31:37.626Z,2.90
2019-05-09T06:36:41.141Z,2.90
2019-05-09T06:41:44.568Z,2.80
2019-05-09T06:46:55.597Z,2.87
2019-05-09T06:51:59.013Z,3.83
2019-05-09T06:57:02.568Z,2.73
2019-05-09T07:02:08.339Z,2.73
2019-05-09T07:07:19.303Z,3.10
2019-05-09T07:12:22.754Z,2.53
2019-05-09T07:17:31.832Z,3.00
2019-05-09T07:22:33.030Z,3.00
2019-05-09T07:27:39.098Z,2.90
2019-05-09T07:32:49.769Z,2.77
2019-05-09T07:37:53.201Z,2.50
2019-05-09T07:42:58.344Z,2.83
2019-05-09T07:48:02.504Z,2.67
2019-05-09T07:53:08.586Z,2.47
2019-05-09T07:58:14.219Z,2.10
2019-05-09T08:03:18.125Z,2.13
2019-05-09T08:08:21.444Z,2.23
2019-05-09T08:13:24.885Z,2.07
2019-05-09T08:18:28.372Z,2.77
2019-05-09T08:23:31.806Z,2.23
2019-05-09T08:28:35.216Z,2.00
2019-05-09T08:33:38.633Z,2.20
2019-05-09T08:38:42.095Z,2.43
2019-05-09T08:43:48.082Z,2.27
2019-05-09T08:48:50.766Z,1.87
2019-05-09T08:53:54.251Z,2.23
2019-05-09T08:59:01.811Z,1.87
2019-05-09T09:04:02.823Z,1.57
2019-05-09T09:09:08.106Z,1.63
2019-05-09T09:14:11.683Z,1.97
2019-05-09T09:19:15.113Z,2.13
2019-05-09T09:24:18.652Z,2.23
2019-05-09T09:29:22.816Z,1.80
2019-05-09T09:34:29.387Z,1.77
2019-05-09T09:39:31.489Z,1.30
2019-05-09T09:44:34.862Z,1.63
2019-05-09T09:49:38.753Z,1.27
2019-05-09T09:54:42.489Z,1.60
2019-05-09T09:59:48.409Z,1.77
2019-05-09T10:04:55.041Z,1.90
2019-05-09T10:09:58.595Z,1.40
2019-05-09T10:15:03.656Z,1.90
2019-05-09T10:20:18.723Z,1.80
2019-05-09T10:25:22.160Z,2.40
2019-05-09T10:30:34.491Z,1.20
2019-05-09T10:35:39.258Z,1.90
2019-05-09T10:40:42.902Z,2.93
2019-05-09T10:45:57.805Z,1.53
2019-05-09T10:51:05.084Z,1.70
2019-05-09T10:56:08.713Z,1.53
2019-05-09T11:01:11.911Z,1.10
2019-05-09T11:06:18.016Z,0.90
2019-05-09T11:11:20.646Z,1.47
2019-05-09T11:16:38.052Z,1.60
2019-05-09T11:21:29.309Z,1.10
2019-05-09T11:26:32.765Z,0.90
2019-05-09T11:31:38.367Z,1.33
2019-05-09T11:36:41.399Z,1.43
2019-05-09T11:41:44.837Z,1.43
2019-05-09T11:46:48.264Z,1.57
2019-05-09T11:51:51.695Z,1.77
2019-05-09T11:56:57.443Z,1.63
2019-05-09T12:02:00.281Z,3.07
2019-05-09T12:07:03.707Z,2.03
2019-05-09T12:12:07.150Z,3.00
2019-05-09T12:17:10.630Z,3.67
2019-05-09T12:22:14.256Z,1.87
2019-05-09T12:27:18.916Z,10.47
2019-05-09T12:32:22.437Z,1.33
2019-05-09T12:37:28.019Z,5.57
2019-05-09T12:42:31.007Z,12.87
2019-05-09T12:47:34.473Z,2.00
2019-05-09T12:52:39.172Z,3.90
2019-05-09T12:57:42.878Z,3.20
2019-05-09T13:02:46.328Z,2.10
2019-05-09T13:08:10.567Z,4.20
2019-05-09T13:13:13.999Z,1.97
2019-05-09T13:18:22.841Z,2.80
2019-05-09T13:23:22.753Z,1.30
2019-05-09T13:28:26.315Z,2.60
2019-05-09T13:33:29.741Z,1.27
2019-05-09T13:38:33.783Z,1.00
2019-05-09T13:43:46.047Z,1.23
2019-05-09T13:49:05.185Z,1.00
2019-05-09T13:53:48.444Z,0.97
2019-05-09T13:58:52.024Z,1.27
2019-05-09T14:03:57.592Z,0.90
2019-05-09T14:09:00.693Z,1.40
2019-05-09T14:14:04.661Z,0.80
2019-05-09T14:19:25.956Z,0.60
2019-05-09T14:24:16.637Z,1.07
2019-05-09T14:29:20.610Z,0.87
2019-05-09T14:34:23.636Z,0.90
2019-05-09T14:39:27.662Z,0.73
2019-05-09T14:44:31.273Z,0.93
2019-05-09T14:49:42.372Z,0.60
2019-05-09T14:54:39.890Z,2.47
2019-05-09T14:59:43.321Z,0.60
2019-05-09T15:04:48.579Z,0.40
2019-05-09T15:09:54.088Z,0.80
2019-05-09T15:14:57.813Z,0.60
2019-05-09T15:20:01.346Z,0.93
2019-05-09T15:25:05.309Z,0.70
2019-05-09T15:30:09.382Z,0.60
2019-05-09T15:35:13.018Z,0.30
2019-05-09T15:40:17.665Z,0.90
2019-05-09T15:45:22.445Z,0.43
2019-05-09T15:50:27.838Z,0.30
2019-05-09T15:55:31.038Z,0.30
2019-05-09T16:00:34.514Z,0.57
2019-05-09T16:05:38.615Z,0.40
2019-05-09T16:10:42.091Z,0.30
2019-05-09T16:15:45.544Z,0.40
2019-05-09T16:20:48.981Z,0.40
2019-05-09T16:25:52.412Z,0.70
2019-05-09T16:30:55.840Z,0.30
2019-05-09T16:35:59.269Z,0.40
2019-05-09T16:41:02.753Z,0.70
2019-05-09T16:46:07.567Z,0.67
2019-05-09T16:51:11.218Z,0.37
2019-05-09T16:56:14.779Z,1.03
2019-05-09T17:01:18.803Z,0.87
2019-05-09T17:06:22.481Z,0.70
2019-05-09T17:11:27.792Z,0.70
2019-05-09T17:16:31.154Z,0.50
2019-05-09T17:21:39.154Z,0.40
2019-05-09T17:26:42.663Z,1.00
2019-05-09T17:31:48.571Z,0.67
2019-05-09T17:36:51.227Z,0.80
2019-05-09T17:41:54.777Z,1.17
2019-05-09T17:46:58.309Z,1.07
2019-05-09T17:52:02.636Z,1.00
2019-05-09T17:57:09.315Z,0.90
2019-05-09T18:02:12.795Z,1.17
2019-05-09T18:07:18.040Z,0.93
2019-05-09T18:12:21.420Z,1.00
2019-05-09T18:17:24.928Z,1.37
2019-05-09T18:22:28.361Z,0.97
2019-05-09T18:27:31.791Z,0.73
2019-05-09T18:32:39.750Z,1.10
2019-05-09T18:37:43.313Z,0.80
2019-05-09T18:42:47.566Z,0.80
2019-05-09T18:47:51.151Z,0.90
2019-05-09T18:52:54.662Z,1.23
2019-05-09T18:57:58.073Z,1.03
2019-05-09T19:03:01.598Z,1.13
2019-05-09T19:08:05.173Z,1.37
2019-05-09T19:13:08.597Z,0.90
2019-05-09T19:23:40.398Z,1.03
2019-05-09T19:28:43.846Z,1.27
2019-05-09T19:33:47.334Z,1.90
2019-05-09T19:38:50.764Z,4.23
2019-05-09T19:43:54.181Z,2.73
2019-05-09T19:48:58.111Z,1.50
2019-05-09T19:54:01.534Z,1.30
2019-05-09T19:59:07.809Z,1.97
2019-05-09T20:04:10.355Z,1.87
2019-05-09T20:09:15.428Z,1.80
2019-05-09T20:14:23.537Z,2.00
2019-05-09T20:19:26.979Z,2.60
2019-05-09T20:24:30.445Z,2.27
2019-05-09T20:29:33.867Z,1.93
2019-05-09T20:34:37.333Z,2.17
2019-05-09T20:39:40.935Z,2.50
2019-05-09T20:44:44.720Z,2.67
2019-05-09T20:49:48.346Z,2.17
2019-05-09T20:54:51.935Z,2.20
2019-05-09T20:59:55.531Z,3.20
2019-05-09T21:04:59.131Z,4.20
2019-05-09T21:10:02.744Z,4.43
2019-05-09T21:15:08.528Z,4.13
2019-05-09T21:20:12.358Z,4.27
2019-05-09T21:25:16.018Z,5.57
2019-05-09T21:30:19.772Z,5.17
2019-05-09T21:35:23.183Z,4.67
2019-05-09T21:40:26.613Z,6.50
2019-05-09T21:45:30.135Z,6.50
2019-05-09T21:50:33.558Z,6.47
2019-05-09T21:55:36.992Z,5.93
2019-05-09T22:00:44.951Z,6.80
2019-05-09T22:05:48.388Z,6.80
2019-05-09T22:10:51.817Z,7.13
2019-05-09T22:15:55.351Z,7.20
2019-05-09T22:20:58.882Z,7.73
2019-05-09T22:26:02.307Z,7.90
2019-05-09T22:31:05.752Z,7.83
2019-05-09T22:36:09.206Z,8.40
2019-05-09T22:41:12.607Z,7.73
2019-05-09T22:46:16.044Z,9.40
2019-05-09T22:51:19.711Z,10.40
2019-05-09T22:56:24.649Z,12.87
2019-05-09T23:01:28.142Z,11.30
2019-05-09T23:06:31.676Z,12.70
2019-05-09T23:11:35.116Z,13.67
2019-05-09T23:16:40.441Z,13.57
2019-05-09T23:21:43.922Z,11.73
2019-05-09T23:26:47.379Z,12.70
2019-05-09T23:31:58.050Z,13.63
2019-05-09T23:37:01.549Z,13.13
2019-05-09T23:42:05.085Z,11.17
2019-05-09T23:47:08.546Z,12.53
2019-05-09T23:52:12.077Z,12.63
2019-05-09T23:57:33.525Z,12.57
